Die Darstellen des Panoramas erfordert JavaScript

Ab dem 01.04.2020 wird die luftrechtliche Halterschaft für den Verkehrslandeplatz Coburg vom Aero Club Coburg e.V. auf die neu gegründete SÜC Verkehrslandeplatz GmbH – eine 100%ige Tochtergesellschaft der SÜC GmbH - übergehen.

Die Geschäftsführung der SÜC Verkehrslandeplatz GmbH übernehmen Raimund Angermüller und Xaver Rupp.

Herzlicher Dank gilt dem Aero Club Coburg für 20 Jahre hervorragende Arbeit im Sinne des Luftverkehrs, zum Wohle der Region Coburg, der Bürger und der Wirtschaft.

Das bisherige Team vom Tower ist auch in Zukunft der Ansprechpartner für alle Belange rund um unsere Brandensteinsebene!

Ihre Verkehrslandeplatz Coburg GmbH

Neuigkeiten

Ab dem 01.04.2020 wird die luftrechtliche Halterschaft für den Verkehrslandeplatz Coburg vom Aero Club Coburg e.V. auf die neu gegründete SÜC Verkehrslandeplatz GmbH – eine 100%ige Tochtergesellschaft der SÜC GmbH - übergehen.

Weiterlesen ...

Hinweise beim Einflug aus vom Coronavirus Betroffenen Gebieten

Weiterlesen ...

Automatic Terminal Information Service

EDQC 031320Z AUTO 22004KT 170V340 CAVOK 25/04 Q1004=
 
SÜC Verkehrslandeplatz GmbH

Tower
Zur Brandensteinsebene 1
96450 Coburg

Kontakt

+49 (0) 95 61 / 9 20 98
+49 (0) 95 61 / 9 20 06

ICAO-Code EDQC

Impressum | Datenschutzerklärung

© SÜC Verkehrslandeplatz GmbH